< Typhoon 200701 2007 Season Typhoon 200703 >
Typhoon 200702 (YUTU)
General InformationTrack Information on Google MapsDetailed Wind InformationAccess Analytics MapList of All Images || NewsDisaster Info.WeblogTrackbackTyphoon FrontResourceGoogle EarthGE AnimationAtom FeedGeoJSON
Detalied Best Track (Time Zone = UTC)
Year Month Day Hour Lat. Long. Pressure (hPa) Wind (kt) Class Image Chart
2007 5 15 06 8.1 146.6 1006 0 2 Image Chart
2007 5 15 12 8.2 146.2 1008 0 2 Image Chart
2007 5 15 18 8.4 145.4 1006 0 2 Image Chart
2007 5 16 00 8.9 144.7 1008 0 2 Image Chart
2007 5 16 06 9.0 144.3 1008 0 2 Image Chart
2007 5 16 12 9.0 143.2 1008 0 2 Image Chart
2007 5 16 18 8.8 141.9 1006 0 2 Image Chart
2007 5 17 00 8.9 140.7 1006 0 2 Image Chart
2007 5 17 06 9.3 138.9 1006 0 2 Image Chart
2007 5 17 12 9.8 137.9 1006 0 2 Image Chart
2007 5 17 18 10.5 137.1 1002 35 3 Image Chart
2007 5 18 00 11.3 136.2 996 45 3 Image Chart
2007 5 18 06 12.1 134.9 990 55 4 Image Chart
2007 5 18 12 13.0 133.8 980 60 4 Image Chart
2007 5 18 18 14.0 133.0 975 65 5 Image Chart
2007 5 19 00 15.1 132.5 970 70 5 Image Chart
2007 5 19 06 16.2 132.2 960 80 5 Image Chart
2007 5 19 12 17.1 132.3 950 85 5 Image Chart
2007 5 19 18 17.7 132.7 945 90 5 Image Chart
2007 5 20 00 18.2 133.4 945 90 5 Image Chart
2007 5 20 06 19.0 134.3 945 90 5 Image Chart
2007 5 20 12 19.8 135.3 935 95 5 Image Chart
2007 5 20 18 20.8 136.5 935 95 5 Image Chart
2007 5 21 00 21.7 137.8 935 95 5 Image Chart
2007 5 21 06 22.9 139.2 945 90 5 Image Chart
2007 5 21 12 24.0 140.7 950 90 5 Image Chart
2007 5 21 15 24.6 141.5 955 85 5 Image Chart
2007 5 21 18 25.2 142.5 960 80 5 Image Chart
2007 5 21 21 25.8 143.6 965 75 5 Image Chart
2007 5 22 00 26.3 144.6 970 70 5 Image Chart
2007 5 22 03 26.9 145.5 970 70 5 Image Chart
2007 5 22 06 27.4 146.6 975 65 5 Image Chart
2007 5 22 12 28.8 149.5 985 50 4 Image Chart
2007 5 22 18 29.9 152.8 990 45 3 Image Chart
2007 5 23 00 31.0 156.0 992 0 6 Image Chart
2007 5 23 06 31.3 160.0 1000 0 6 Image Chart
2007 5 23 12 32.7 163.9 1000 0 6 Image Chart
2007 5 23 18 34.4 167.5 994 0 6 Image Chart
2007 5 24 00 35.4 170.3 996 0 6 Image Chart
2007 5 24 06 36.2 173.0 994 0 6 Image Chart
2007 5 24 12 36.3 175.7 994 0 6 Image Chart
2007 5 24 18 36.4 179.0 998 0 6 Image Chart
2007 5 25 00 36.6 183.0 1004 0 6 Image Chart
Japan Meteorological Agency Best Track Data | Correction Date : 2007-06-22
< Typhoon 200701 2007 Season Typhoon 200703 >

Help